Washington Executive test (W32)
Clinton, MD
Field Elevation: 249
Lat: 38°44.89N  Long: 76°55.97W
CTAF/Unicom Freq: 122.8000
   
    
Weather Advisories
2/1/2015 00:23 Z
Altimeter 30.29" Hg
Wind 327° @ 2 KT
Gusts 3 KT
Temperature -2° C (28° F)
Dewpoint -33° C (-27° F)
Relative Humidity 7%
Density Altitude -2,518 feet
Condensation Altitude 13,382 feet
  Wind and Runways
Indicated Runway = 5
History
 
 
More Info
All DigiWx sites map
Weather Radar
NOAA Forecast
 
Airport IQ 5010
(HMIEM) Shock Trauma Ctr
(26N) Ocean City
 
about DigiWx
 
FAA Disclaimer: The data displayed is for advisory purposes only and is not to be used for flight planning or operations. For official data, please call (not available) to hear the current automated AWOS voice message.
  METAR W32 010023Z AUTO 33002G03KT M02/M33 A3029